map of ENW home
ENW - Airport
Location
City:  Kenosha, Wisconsin, United States
Name:Kenosha Regional
ICAO:KENW
IATA:ENW
FAA LID:ENW

Details
Type:Airport (Airfield)
Use:Public/Civil, International (customs landing rights)
Latitude:4235'44"N (42.595694)
Longitude:8755'40"W (-87.927805)
Datum:WGS 1984
Elevation:742 ft (226 m)
Variation:3.87W (WMM2015 magnetic declination)
-0.06 annual change
Runways:3
Longest:5499 × 100 ft (1676 × 30.5 m), paved

Time
Time Zone:UTC-6 (DST-5)
Local Time:

Weather
METAR:KENW 170253Z 28008KT 10SM CLR 03/M01 A3006 RMK AO2 SLP186 T00281011 55001
TAF:KENW 162320Z 1700/1724 29009KT P6SM FEW240
FM170800 31015KT P6SM FEW240
FM172200 32006KT P6SM FEW250

Related Locations
Nearby:
Farthest:YAUG: 11070 mi / 17816 km
Augusta [Augusta Airport], WA, AU

Find:

   beyond  
but within

Other Information
Maps:
NOTAMs:
Links:
Sources:

  
  • flag of United States
  • flag of Wisconsin
  

Airport Diagram

Airport diagram for ENW

Airport diagram PDF

Sectional Chart

Flight Planning
at skyvector.com

Satellite Image

Google Maps Satellite view

 

Copyright © 2004-2018 Karl L. Swartz. All rights reserved.
The Great Circle Mapper name and logo are trademarks of the Great Circle Mapper.
All other trademarks mentioned herein belong to their respective owners.
Please see credits for attibutions and further copyright information.

  Follow gcmap on Facebook Follow gcmap on Twitter Follow gcmap on Google+ GCmap on LinkedIn

hCard Microformat

Geo Microformat